createdAt,value
2023-04-20T00:00:50.712Z,101375.16
2023-04-20T00:03:20.620Z,101375.91
2023-04-20T00:05:50.070Z,101371.34
2023-04-20T00:08:19.081Z,101367.53
2023-04-20T00:10:45.595Z,101367.53
2023-04-20T00:13:11.859Z,101371.22
2023-04-20T00:15:38.342Z,101369.50
2023-04-20T00:18:04.624Z,101376.88
2023-04-20T00:20:31.226Z,101363.09
2023-04-20T00:22:57.302Z,101366.41
2023-04-20T00:25:23.629Z,101370.69
2023-04-20T00:27:49.726Z,101367.41
2023-04-20T00:30:16.150Z,101357.91
2023-04-20T00:32:42.270Z,101363.97
2023-04-20T00:35:08.977Z,101368.13
2023-04-20T00:37:35.096Z,101365.28
2023-04-20T00:40:01.443Z,101364.19
2023-04-20T00:42:27.548Z,101367.59
2023-04-20T00:44:54.062Z,101361.09
2023-04-20T00:47:21.429Z,101359.09
2023-04-20T00:49:47.793Z,101358.25
2023-04-20T00:52:14.108Z,101359.84
2023-04-20T00:54:40.766Z,101366.22
2023-04-20T00:57:10.278Z,101361.41
2023-04-20T00:59:36.775Z,101364.00
2023-04-20T01:02:02.939Z,101363.63
2023-04-20T01:04:30.286Z,101361.50
2023-04-20T01:06:57.735Z,101352.19
2023-04-20T01:09:24.036Z,101346.19
2023-04-20T01:11:50.048Z,101343.72
2023-04-20T01:14:16.447Z,101345.84
2023-04-20T01:16:44.117Z,101350.91
2023-04-20T01:19:12.944Z,101350.94
2023-04-20T01:21:39.964Z,101357.09
2023-04-20T01:24:06.733Z,101348.47
2023-04-20T01:26:32.921Z,101348.47
2023-04-20T01:28:59.323Z,101350.19
2023-04-20T01:31:25.493Z,101345.16
2023-04-20T01:33:51.873Z,101340.22
2023-04-20T01:36:20.587Z,101348.06
2023-04-20T01:38:47.481Z,101345.63
2023-04-20T01:41:13.629Z,101357.03
2023-04-20T01:43:40.224Z,101346.09
2023-04-20T01:46:06.557Z,101345.84
2023-04-20T01:48:33.610Z,101345.44
2023-04-20T01:50:59.832Z,101340.91
2023-04-20T01:53:26.420Z,101348.88
2023-04-20T01:55:52.685Z,101342.47
2023-04-20T01:58:22.129Z,101340.94
2023-04-20T02:00:48.379Z,101353.00
2023-04-20T02:03:14.939Z,101352.03
2023-04-20T02:05:41.268Z,101355.94
2023-04-20T02:08:07.695Z,101356.66
2023-04-20T02:10:33.812Z,101354.81
2023-04-20T02:13:00.255Z,101355.03
2023-04-20T02:15:26.391Z,101347.28
2023-04-20T02:17:52.959Z,101354.44
2023-04-20T02:20:19.682Z,101356.66
2023-04-20T02:22:46.360Z,101358.63
2023-04-20T02:25:13.634Z,101351.38
2023-04-20T02:27:40.035Z,101353.88
2023-04-20T02:30:07.757Z,101358.16
2023-04-20T02:32:34.477Z,101348.34
2023-04-20T02:35:01.220Z,101350.81
2023-04-20T02:37:27.959Z,101352.53
2023-04-20T02:39:54.289Z,101347.59
2023-04-20T02:42:20.799Z,101347.69
2023-04-20T02:44:48.444Z,101352.97
2023-04-20T02:47:15.613Z,101348.59
2023-04-20T02:49:42.818Z,101346.88
2023-04-20T02:52:09.241Z,101348.97
2023-04-20T02:54:35.962Z,101357.34
2023-04-20T02:57:02.943Z,101347.84
2023-04-20T02:59:29.145Z,101354.59
2023-04-20T03:02:04.527Z,101345.28
2023-04-20T03:04:31.404Z,101346.88
2023-04-20T03:07:16.519Z,101338.75
2023-04-20T03:09:43.555Z,101340.59
2023-04-20T03:12:25.411Z,101346.66
2023-04-20T03:15:05.684Z,101337.78
2023-04-20T03:17:44.459Z,101338.50
2023-04-20T03:20:10.993Z,101339.00
2023-04-20T03:22:37.596Z,101343.09
2023-04-20T03:25:05.716Z,101334.72
2023-04-20T03:28:01.386Z,101345.63
2023-04-20T03:30:28.408Z,101355.84
2023-04-20T03:33:15.646Z,101355.00
2023-04-20T03:35:42.342Z,101364.69
2023-04-20T03:38:08.833Z,101368.72
2023-04-20T03:40:36.144Z,101368.47
2023-04-20T03:43:04.104Z,101368.97
2023-04-20T03:45:30.201Z,101365.06
2023-04-20T03:47:56.611Z,101359.84
2023-04-20T03:50:24.379Z,101361.41
2023-04-20T03:52:50.761Z,101355.63
2023-04-20T03:55:17.197Z,101359.44
2023-04-20T03:57:49.628Z,101362.53
2023-04-20T04:00:16.501Z,101357.59
2023-04-20T04:02:46.308Z,101363.00
2023-04-20T04:05:16.244Z,101361.16
2023-04-20T04:07:42.846Z,101359.19
2023-04-20T04:10:10.173Z,101356.50
2023-04-20T04:12:36.763Z,101362.88
2023-04-20T04:15:03.504Z,101365.94
2023-04-20T04:17:33.901Z,101355.25
2023-04-20T04:20:00.267Z,101362.59
2023-04-20T04:22:27.944Z,101361.34
2023-04-20T04:25:14.397Z,101370.22
2023-04-20T04:27:43.121Z,101363.31
2023-04-20T04:30:10.505Z,101370.44
2023-04-20T04:32:37.754Z,101357.13
2023-04-20T04:35:05.298Z,101361.41
2023-04-20T04:37:31.764Z,101362.66
2023-04-20T04:42:44.695Z,101371.00
2023-04-20T04:45:12.872Z,101363.41
2023-04-20T04:47:41.808Z,101359.34
2023-04-20T04:50:10.570Z,101362.97
2023-04-20T04:52:37.105Z,101353.34
2023-04-20T04:55:07.506Z,101366.25
2023-04-20T04:57:34.602Z,101358.44
2023-04-20T05:00:07.671Z,101361.91
2023-04-20T05:02:35.598Z,101339.44
2023-04-20T05:05:02.533Z,101360.03
2023-04-20T05:07:29.280Z,101357.25
2023-04-20T05:09:55.715Z,101358.06
2023-04-20T05:12:22.287Z,101356.91
2023-04-20T05:14:48.348Z,101370.22
2023-04-20T05:17:14.907Z,101375.16
2023-04-20T05:19:40.964Z,101362.69
2023-04-20T05:22:07.689Z,101358.38
2023-04-20T05:24:34.051Z,101369.97
2023-04-20T05:27:01.091Z,101360.66
2023-04-20T05:29:27.478Z,101362.28
2023-04-20T05:31:54.072Z,101371.31
2023-04-20T05:34:20.573Z,101371.91
2023-04-20T05:36:47.177Z,101375.31
2023-04-20T05:39:13.429Z,101373.22
2023-04-20T05:41:39.890Z,101380.50
2023-04-20T05:44:06.020Z,101391.50
2023-04-20T05:46:32.404Z,101388.06
2023-04-20T05:48:58.492Z,101375.28
2023-04-20T05:51:29.737Z,101386.13
2023-04-20T05:53:55.884Z,101397.41
2023-04-20T05:56:22.637Z,101391.72
2023-04-20T05:58:49.122Z,101389.97
2023-04-20T06:01:15.594Z,101393.84
2023-04-20T06:03:42.016Z,101392.72
2023-04-20T06:06:08.569Z,101395.41
2023-04-20T06:08:34.702Z,101399.84
2023-04-20T06:11:01.120Z,101400.81
2023-04-20T06:13:27.311Z,101401.97
2023-04-20T06:15:53.894Z,101405.28
2023-04-20T06:18:20.158Z,101407.13
2023-04-20T06:20:46.583Z,101399.00
2023-04-20T06:23:12.658Z,101395.69
2023-04-20T06:25:39.064Z,101397.22
2023-04-20T06:28:05.596Z,101398.22
2023-04-20T06:30:33.221Z,101384.97
2023-04-20T06:33:00.265Z,101392.59
2023-04-20T06:35:26.820Z,101395.22
2023-04-20T06:37:56.551Z,101403.50
2023-04-20T06:40:26.173Z,101401.13
2023-04-20T06:42:52.380Z,101413.47
2023-04-20T06:45:19.205Z,101408.84
2023-04-20T06:47:45.572Z,101413.69
2023-04-20T06:50:12.240Z,101419.47
2023-04-20T06:52:39.422Z,101427.34
2023-04-20T06:55:07.167Z,101417.28
2023-04-20T06:57:33.827Z,101422.28
2023-04-20T07:00:00.771Z,101426.66
2023-04-20T07:02:27.334Z,101417.50
2023-04-20T07:05:01.250Z,101424.44
2023-04-20T07:07:27.526Z,101419.03
2023-04-20T07:09:53.907Z,101427.38
2023-04-20T07:12:19.987Z,101422.59
2023-04-20T07:14:46.325Z,101426.28
2023-04-20T07:17:12.467Z,101425.16
2023-04-20T07:19:38.884Z,101431.06
2023-04-20T07:22:04.944Z,101425.63
2023-04-20T07:24:31.356Z,101424.69
2023-04-20T07:26:57.589Z,101430.59
2023-04-20T07:29:24.022Z,101434.06
2023-04-20T07:31:50.177Z,101432.53
2023-04-20T07:34:16.831Z,101430.78
2023-04-20T07:36:43.464Z,101429.09
2023-04-20T07:39:09.821Z,101440.66
2023-04-20T07:41:35.966Z,101439.06
2023-04-20T07:44:02.761Z,101440.91
2023-04-20T07:46:28.994Z,101438.63
2023-04-20T07:48:55.356Z,101446.72
2023-04-20T07:51:21.504Z,101441.84
2023-04-20T07:53:47.898Z,101442.69
2023-04-20T07:56:14.083Z,101439.38
2023-04-20T07:58:41.241Z,101440.91
2023-04-20T08:01:07.520Z,101439.78
2023-04-20T08:03:34.931Z,101437.63
2023-04-20T08:06:01.963Z,101449.88
2023-04-20T08:08:29.667Z,101449.88
2023-04-20T08:10:58.898Z,101446.63
2023-04-20T08:13:26.915Z,101456.78
2023-04-20T08:15:53.240Z,101460.00
2023-04-20T08:18:21.316Z,101454.13
2023-04-20T08:20:47.963Z,101459.25
2023-04-20T08:23:14.419Z,101454.50
2023-04-20T08:25:40.560Z,101452.88
2023-04-20T08:28:11.965Z,101451.09
2023-04-20T08:30:40.432Z,101453.41
2023-04-20T08:33:06.845Z,101458.94
2023-04-20T08:35:33.024Z,101462.66
2023-04-20T08:38:00.168Z,101455.47
2023-04-20T08:40:27.550Z,101459.53
2023-04-20T08:42:54.024Z,101455.63
2023-04-20T08:45:20.435Z,101460.25
2023-04-20T08:47:47.901Z,101466.44
2023-04-20T08:50:15.626Z,101464.69
2023-04-20T08:52:42.237Z,101463.81
2023-04-20T08:55:08.444Z,101461.66
2023-04-20T08:57:34.864Z,101464.22
2023-04-20T09:00:04.852Z,101457.09
2023-04-20T09:02:31.464Z,101459.53
2023-04-20T09:05:03.900Z,101457.56
2023-04-20T09:07:31.158Z,101463.00
2023-04-20T09:09:59.330Z,101448.91
2023-04-20T09:12:26.576Z,101459.72
2023-04-20T09:14:53.344Z,101457.06
2023-04-20T09:17:36.524Z,101465.59
2023-04-20T09:20:04.479Z,101461.34
2023-04-20T09:22:36.010Z,101462.69
2023-04-20T09:25:15.915Z,101458.13
2023-04-20T09:27:43.394Z,101447.19
2023-04-20T09:30:10.117Z,101453.41
2023-04-20T09:32:36.508Z,101454.09
2023-04-20T09:35:03.249Z,101455.38
2023-04-20T09:37:29.871Z,101449.41
2023-04-20T09:39:59.571Z,101451.28
2023-04-20T09:42:28.096Z,101453.13
2023-04-20T09:44:55.118Z,101458.00
2023-04-20T09:47:21.782Z,101456.13
2023-04-20T09:49:47.924Z,101447.59
2023-04-20T09:52:17.636Z,101451.22
2023-04-20T09:54:44.555Z,101449.88
2023-04-20T09:57:12.558Z,101451.13
2023-04-20T09:59:43.461Z,101449.50
2023-04-20T10:02:11.864Z,101453.38
2023-04-20T10:04:56.642Z,101450.59
2023-04-20T10:07:27.356Z,101441.19
2023-04-20T10:10:03.112Z,101439.66
2023-04-20T10:12:29.627Z,101445.31
2023-04-20T10:14:57.069Z,101444.03
2023-04-20T10:17:31.464Z,101436.50
2023-04-20T10:19:58.219Z,101435.56
2023-04-20T10:22:31.864Z,101435.94
2023-04-20T10:25:13.413Z,101440.09
2023-04-20T10:27:39.845Z,101431.84
2023-04-20T10:30:10.212Z,101438.25
2023-04-20T10:32:36.748Z,101426.13
2023-04-20T10:35:05.744Z,101438.31
2023-04-20T10:37:32.909Z,101435.56
2023-04-20T10:39:59.597Z,101430.09
2023-04-20T10:42:25.970Z,101424.66
2023-04-20T10:44:53.681Z,101416.72
2023-04-20T10:47:28.854Z,101423.72
2023-04-20T10:50:11.581Z,101420.88
2023-04-20T10:52:39.680Z,101425.53
2023-04-20T10:55:16.871Z,101411.56
2023-04-20T10:57:46.750Z,101421.13
2023-04-20T11:00:18.310Z,101409.06
2023-04-20T11:02:58.828Z,101405.34
2023-04-20T11:05:26.774Z,101413.69
2023-04-20T11:07:58.044Z,101409.81
2023-04-20T11:10:37.263Z,101404.78
2023-04-20T11:13:03.705Z,101404.97
2023-04-20T11:15:33.759Z,101403.94
2023-04-20T11:18:11.172Z,101406.78
2023-04-20T11:20:48.680Z,101405.91
2023-04-20T11:23:15.346Z,101396.47
2023-04-20T11:25:55.188Z,101410.19
2023-04-20T11:28:22.489Z,101410.94
2023-04-20T11:30:50.085Z,101399.38
2023-04-20T11:33:31.658Z,101418.63
2023-04-20T11:35:58.478Z,101415.22
2023-04-20T11:38:33.416Z,101414.91
2023-04-20T11:41:03.815Z,101398.66
2023-04-20T11:43:31.451Z,101412.34
2023-04-20T11:45:58.790Z,101404.66
2023-04-20T11:48:26.772Z,101402.69
2023-04-20T11:50:52.878Z,101410.53
2023-04-20T11:53:19.349Z,101402.59
2023-04-20T11:55:45.426Z,101402.59
2023-04-20T11:58:11.887Z,101402.47
2023-04-20T12:00:37.977Z,101407.16
2023-04-20T12:03:04.585Z,101399.31
2023-04-20T12:05:30.845Z,101403.94
2023-04-20T12:07:57.337Z,101397.53
2023-04-20T12:10:23.543Z,101399.66
2023-04-20T12:12:49.921Z,101402.69
2023-04-20T12:15:16.236Z,101388.97
2023-04-20T12:17:42.583Z,101395.03
2023-04-20T12:20:11.328Z,101396.75
2023-04-20T12:22:37.759Z,101402.88
2023-04-20T12:25:05.440Z,101404.72
2023-04-20T12:27:31.788Z,101394.69
2023-04-20T12:29:57.967Z,101395.16
2023-04-20T12:32:24.364Z,101394.19
2023-04-20T12:34:50.780Z,101406.78
2023-04-20T12:37:17.135Z,101383.56
2023-04-20T12:39:43.205Z,101384.31
2023-04-20T12:42:09.740Z,101384.44
2023-04-20T12:44:35.887Z,101381.69
2023-04-20T12:47:02.416Z,101380.16
2023-04-20T12:49:28.692Z,101381.88
2023-04-20T12:51:55.200Z,101372.97
2023-04-20T12:54:21.355Z,101373.25
2023-04-20T12:56:47.736Z,101369.56
2023-04-20T12:59:14.321Z,101367.47
2023-04-20T13:01:40.887Z,101374.78
2023-04-20T13:04:07.269Z,101365.56
2023-04-20T13:06:33.868Z,101370.38
2023-04-20T13:09:00.720Z,101368.34
2023-04-20T13:11:27.441Z,101370.31
2023-04-20T13:13:53.597Z,101362.63
2023-04-20T13:16:20.187Z,101364.25
2023-04-20T13:18:46.282Z,101349.66
2023-04-20T13:21:12.656Z,101358.97
2023-04-20T13:23:39.348Z,101351.66
2023-04-20T13:26:06.787Z,101357.69
2023-04-20T13:28:33.252Z,101354.06
2023-04-20T13:30:59.847Z,101355.13
2023-04-20T13:33:26.160Z,101350.94
2023-04-20T13:35:52.627Z,101353.47
2023-04-20T13:38:18.832Z,101355.50
2023-04-20T13:40:46.006Z,101359.63
2023-04-20T13:43:12.347Z,101351.03
2023-04-20T13:45:38.971Z,101342.28
2023-04-20T13:48:05.349Z,101354.31
2023-04-20T13:50:31.844Z,101342.94
2023-04-20T13:52:58.139Z,101342.00
2023-04-20T13:55:26.806Z,101343.63
2023-04-20T13:57:53.180Z,101349.78
2023-04-20T14:00:19.939Z,101342.69
2023-04-20T14:02:46.222Z,101335.81
2023-04-20T14:05:12.897Z,101337.28
2023-04-20T14:07:39.083Z,101340.44
2023-04-20T14:10:06.231Z,101345.88
2023-04-20T14:12:33.149Z,101340.31
2023-04-20T14:15:00.135Z,101338.16
2023-04-20T14:17:26.698Z,101332.63
2023-04-20T14:19:53.137Z,101335.38
2023-04-20T14:22:19.300Z,101337.84
2023-04-20T14:24:46.924Z,101324.88
2023-04-20T14:27:13.158Z,101328.28
2023-04-20T14:29:39.625Z,101327.09
2023-04-20T14:32:05.807Z,101332.03
2023-04-20T14:34:32.189Z,101328.19
2023-04-20T14:36:58.490Z,101327.41
2023-04-20T14:39:24.907Z,101324.16
2023-04-20T14:41:51.468Z,101324.88
2023-04-20T14:44:18.927Z,101314.25
2023-04-20T14:46:46.798Z,101316.81
2023-04-20T14:49:14.633Z,101308.84
2023-04-20T14:51:41.595Z,101324.38
2023-04-20T14:54:08.112Z,101321.00
2023-04-20T14:56:35.183Z,101323.34
2023-04-20T14:59:01.870Z,101330.78
2023-04-20T15:01:28.418Z,101324.50
2023-04-20T15:03:55.373Z,101328.75
2023-04-20T15:06:21.707Z,101324.97
2023-04-20T15:08:48.219Z,101322.28
2023-04-20T15:11:15.680Z,101318.16
2023-04-20T15:13:42.918Z,101329.41
2023-04-20T15:16:09.024Z,101327.25
2023-04-20T15:18:38.482Z,101320.41
2023-04-20T15:21:04.808Z,101306.19
2023-04-20T15:23:31.284Z,101306.09
2023-04-20T15:25:57.510Z,101319.28
2023-04-20T15:28:24.057Z,101316.94
2023-04-20T15:30:50.548Z,101315.59
2023-04-20T15:33:17.193Z,101324.16
2023-04-20T15:35:43.413Z,101332.22
2023-04-20T15:38:10.114Z,101339.34
2023-04-20T15:40:38.008Z,101329.88
2023-04-20T15:43:04.432Z,101337.06
2023-04-20T15:45:30.630Z,101332.03
2023-04-20T15:47:57.991Z,101330.91
2023-04-20T15:50:24.170Z,101339.69
2023-04-20T15:52:53.201Z,101341.28
2023-04-20T15:55:19.313Z,101338.19
2023-04-20T15:57:45.817Z,101337.09
2023-04-20T16:00:12.815Z,101343.69
2023-04-20T16:02:40.333Z,101339.38
2023-04-20T16:05:07.299Z,101332.53
2023-04-20T16:07:33.792Z,101332.91
2023-04-20T16:10:01.358Z,101334.13
2023-04-20T16:12:28.037Z,101342.03
2023-04-20T16:14:54.211Z,101338.09
2023-04-20T16:17:20.775Z,101342.78
2023-04-20T16:19:46.863Z,101346.91
2023-04-20T16:22:13.778Z,101361.91
2023-04-20T16:24:40.023Z,101367.47
2023-04-20T16:27:06.405Z,101371.31
2023-04-20T16:29:32.472Z,101380.28
2023-04-20T16:31:58.910Z,101378.44
2023-04-20T16:34:25.312Z,101385.47
2023-04-20T16:36:51.692Z,101404.84
2023-04-20T16:39:19.090Z,101404.13
2023-04-20T16:41:45.634Z,101389.22
2023-04-20T16:44:12.900Z,101387.34
2023-04-20T16:46:41.067Z,101365.59
2023-04-20T16:49:08.670Z,101377.34
2023-04-20T16:51:35.274Z,101365.00
2023-04-20T16:54:01.593Z,101342.81
2023-04-20T16:56:28.059Z,101331.75
2023-04-20T16:58:54.219Z,101335.00
2023-04-20T17:01:20.885Z,101338.44
2023-04-20T17:03:47.630Z,101341.69
2023-04-20T17:06:14.676Z,101349.34
2023-04-20T17:08:41.182Z,101343.72
2023-04-20T17:11:07.909Z,101348.13
2023-04-20T17:13:34.294Z,101341.94
2023-04-20T17:16:01.014Z,101347.72
2023-04-20T17:18:27.489Z,101344.13
2023-04-20T17:20:56.669Z,101347.97
2023-04-20T17:23:23.526Z,101346.59
2023-04-20T17:25:50.636Z,101346.19
2023-04-20T17:28:17.142Z,101333.38
2023-04-20T17:30:45.189Z,101345.81
2023-04-20T17:33:11.822Z,101346.16
2023-04-20T17:35:38.776Z,101345.50
2023-04-20T17:38:05.044Z,101347.47
2023-04-20T17:40:31.700Z,101343.72
2023-04-20T17:42:59.578Z,101346.06
2023-04-20T17:45:26.285Z,101348.34
2023-04-20T17:47:53.037Z,101349.28
2023-04-20T17:50:19.882Z,101353.34
2023-04-20T17:52:54.416Z,101356.44
2023-04-20T17:55:22.965Z,101352.03
2023-04-20T17:57:49.275Z,101346.69
2023-04-20T18:00:16.400Z,101351.81
2023-04-20T18:02:42.732Z,101344.44
2023-04-20T18:05:09.724Z,101352.22
2023-04-20T18:07:36.105Z,101353.78
2023-04-20T18:10:03.538Z,101349.88
2023-04-20T18:12:29.972Z,101358.38
2023-04-20T18:14:56.580Z,101357.44
2023-04-20T18:17:22.880Z,101368.78
2023-04-20T18:19:49.657Z,101366.13
2023-04-20T18:22:15.921Z,101366.94
2023-04-20T18:24:42.600Z,101371.97
2023-04-20T18:27:08.905Z,101379.03
2023-04-20T18:29:35.489Z,101375.59
2023-04-20T18:32:01.929Z,101372.47
2023-04-20T18:34:31.225Z,101375.19
2023-04-20T18:36:58.098Z,101378.22
2023-04-20T18:39:25.058Z,101377.22
2023-04-20T18:41:51.578Z,101377.22
2023-04-20T18:44:18.328Z,101372.06
2023-04-20T18:46:46.163Z,101369.66
2023-04-20T18:49:13.388Z,101372.41
2023-04-20T18:51:39.778Z,101377.91
2023-04-20T18:54:06.479Z,101376.34
2023-04-20T18:56:33.054Z,101368.09
2023-04-20T18:59:00.795Z,101373.81
2023-04-20T19:01:27.690Z,101368.09
2023-04-20T19:03:55.431Z,101376.09
2023-04-20T19:06:22.183Z,101377.81
2023-04-20T19:08:51.809Z,101380.06
2023-04-20T19:11:18.242Z,101382.19
2023-04-20T19:13:45.006Z,101379.38
2023-04-20T19:16:11.855Z,101379.19
2023-04-20T19:18:39.308Z,101377.47
2023-04-20T19:21:05.739Z,101381.44
2023-04-20T19:23:32.536Z,101374.31
2023-04-20T19:25:59.131Z,101380.03
2023-04-20T19:28:25.960Z,101373.63
2023-04-20T19:30:52.368Z,101373.94
2023-04-20T19:33:20.149Z,101362.94
2023-04-20T19:35:50.179Z,101373.38
2023-04-20T19:38:18.352Z,101372.94
2023-04-20T19:40:45.198Z,101376.34
2023-04-20T19:43:11.845Z,101377.78
2023-04-20T19:45:39.062Z,101374.59
2023-04-20T19:48:05.865Z,101371.59
2023-04-20T19:50:32.563Z,101374.31
2023-04-20T19:52:59.554Z,101372.47
2023-04-20T19:55:26.006Z,101376.06
2023-04-20T19:57:52.632Z,101372.78
2023-04-20T20:00:18.973Z,101368.34
2023-04-20T20:02:46.024Z,101374.63
2023-04-20T20:05:12.713Z,101372.50
2023-04-20T20:07:39.566Z,101380.56
2023-04-20T20:10:06.531Z,101377.97
2023-04-20T20:12:33.384Z,101372.69
2023-04-20T20:15:00.503Z,101365.53
2023-04-20T20:17:27.558Z,101364.53
2023-04-20T20:19:55.712Z,101371.25
2023-04-20T20:22:23.010Z,101369.97
2023-04-20T20:24:51.511Z,101362.53
2023-04-20T20:27:18.312Z,101367.56
2023-04-20T20:29:44.790Z,101365.25
2023-04-20T20:32:11.468Z,101359.66
2023-04-20T20:34:38.028Z,101359.53
2023-04-20T20:37:04.770Z,101359.41
2023-04-20T20:39:31.696Z,101363.72
2023-04-20T20:41:58.976Z,101363.28
2023-04-20T20:44:27.175Z,101369.03
2023-04-20T20:46:53.751Z,101358.88
2023-04-20T20:49:20.502Z,101366.03
2023-04-20T20:51:47.428Z,101365.31
2023-04-20T20:54:16.108Z,101358.78
2023-04-20T20:56:43.153Z,101354.09
2023-04-20T20:59:10.126Z,101371.25
2023-04-20T21:01:36.923Z,101364.25
2023-04-20T21:04:04.074Z,101361.41
2023-04-20T21:06:31.953Z,101366.13
2023-04-20T21:08:59.134Z,101355.81
2023-04-20T21:11:25.542Z,101353.09
2023-04-20T21:13:52.047Z,101356.53
2023-04-20T21:16:18.620Z,101355.13
2023-04-20T21:18:45.056Z,101360.84
2023-04-20T21:21:12.391Z,101362.28
2023-04-20T21:23:38.729Z,101359.56
2023-04-20T21:26:05.277Z,101357.28
2023-04-20T21:28:32.115Z,101362.28
2023-04-20T21:30:58.582Z,101362.28
2023-04-20T21:33:24.816Z,101374.28
2023-04-20T21:35:51.313Z,101352.69
2023-04-20T21:38:17.559Z,101367.56
2023-04-20T21:40:43.967Z,101367.28
2023-04-20T21:43:10.414Z,101362.00
2023-04-20T21:45:36.900Z,101368.56
2023-04-20T21:48:03.470Z,101365.38
2023-04-20T21:50:30.030Z,101366.81
2023-04-20T21:52:56.418Z,101367.66
2023-04-20T21:55:23.028Z,101364.50
2023-04-20T21:57:49.251Z,101373.38
2023-04-20T22:00:17.386Z,101374.81
2023-04-20T22:02:46.429Z,101373.53
2023-04-20T22:05:13.023Z,101374.53
2023-04-20T22:07:39.303Z,101377.09
2023-04-20T22:10:07.127Z,101378.13
2023-04-20T22:12:39.712Z,101374.97
2023-04-20T22:15:11.503Z,101372.97
2023-04-20T22:17:37.728Z,101362.84
2023-04-20T22:20:09.184Z,101372.41
2023-04-20T22:22:36.053Z,101379.41
2023-04-20T22:25:03.942Z,101378.56
2023-04-20T22:27:31.016Z,101377.56
2023-04-20T22:29:57.779Z,101374.00
2023-04-20T22:32:27.020Z,101382.00
2023-04-20T22:34:53.966Z,101379.41
2023-04-20T22:37:20.316Z,101383.56
2023-04-20T22:39:46.683Z,101384.13
2023-04-20T22:42:15.540Z,101368.84
2023-04-20T22:44:41.991Z,101378.56
2023-04-20T22:47:08.095Z,101381.69
2023-04-20T22:49:35.117Z,101378.56
2023-04-20T22:52:01.263Z,101370.69
2023-04-20T22:54:27.670Z,101389.00
2023-04-20T22:56:53.825Z,101383.69
2023-04-20T22:59:20.345Z,101389.41
2023-04-20T23:01:46.656Z,101389.66
2023-04-20T23:04:13.086Z,101375.66
2023-04-20T23:06:42.942Z,101387.06
2023-04-20T23:09:10.973Z,101383.94
2023-04-20T23:11:38.054Z,101386.22
2023-04-20T23:14:08.342Z,101390.66
2023-04-20T23:16:35.105Z,101390.78
2023-04-20T23:19:01.608Z,101390.50
2023-04-20T23:21:27.997Z,101389.34
2023-04-20T23:23:56.888Z,101382.50
2023-04-20T23:26:23.832Z,101381.91
2023-04-20T23:28:51.400Z,101380.63
2023-04-20T23:31:21.342Z,101372.22
2023-04-20T23:33:47.889Z,101374.75
2023-04-20T23:36:14.582Z,101374.75
2023-04-20T23:38:41.432Z,101367.19
2023-04-20T23:41:11.764Z,101374.16
2023-04-20T23:43:38.896Z,101373.16
2023-04-20T23:46:05.728Z,101365.88
2023-04-20T23:48:32.755Z,101373.84
2023-04-20T23:50:59.195Z,101372.84
2023-04-20T23:53:26.025Z,101375.72
2023-04-20T23:55:54.675Z,101362.56
2023-04-20T23:58:27.900Z,101364.13
